Time;durP1;ratioP1;P1;durP2;ratioP2;P2;SDS_P1;SDS_P2;PMS_P1;PMS_P2;Temp;Humidity;BMP_temperature;BMP_pressure;BME280_temperature;BME280_humidity;BME280_pressure;Samples;Min_cycle;Max_cycle;Signal;HPM_P1;HPM_P2
2022/03/21 00:02:21;;;;;;;30.13;13.33;;;;;;;;;;4450165;32;20303;-52
2022/03/21 00:04:47;;;;;;;23.63;12.23;;;;;;;;;;4450108;32;20695;-52
2022/03/21 00:07:13;;;;;;;17.23;9.90;;;;;;;;;;4450044;32;20303;-52
2022/03/21 00:09:38;;;;;;;21.00;12.50;;;;;;;;;;4450433;32;20390;-53
2022/03/21 00:12:04;;;;;;;24.17;11.63;;;;;;;;;;4449000;32;20266;-51
2022/03/21 00:14:30;;;;;;;21.07;12.73;;;;;;;;;;4450444;32;20648;-51
2022/03/21 00:16:55;;;;;;;18.63;11.90;;;;;;;;;;4450384;32;20359;-51
2022/03/21 00:19:21;;;;;;;18.30;10.90;;;;;;;;;;4450462;32;20282;-51
2022/03/21 00:21:46;;;;;;;17.73;10.33;;;;;;;;;;4450078;32;20259;-50
2022/03/21 00:24:12;;;;;;;22.20;12.20;;;;;;;;;;4450062;32;20394;-51
2022/03/21 00:26:37;;;;;;;19.57;11.90;;;;;;;;;;4450368;32;20216;-52
2022/03/21 00:29:03;;;;;;;32.73;14.07;;;;;;;;;;4450061;32;20213;-50
2022/03/21 00:31:28;;;;;;;27.60;12.90;;;;;;;;;;4449441;32;20205;-52
2022/03/21 00:33:54;;;;;;;22.60;12.37;;;;;;;;;;4450063;32;20303;-51
2022/03/21 00:36:19;;;;;;;24.73;12.93;;;;;;;;;;4449991;32;20201;-51
2022/03/21 00:38:45;;;;;;;26.07;13.20;;;;;;;;;;4449925;32;20243;-51
2022/03/21 00:41:11;;;;;;;28.00;14.27;;;;;;;;;;4449695;32;20470;-50
2022/03/21 00:43:36;;;;;;;31.40;17.67;;;;;;;;;;4449890;32;20247;-51
2022/03/21 00:46:02;;;;;;;35.97;18.33;;;;;;;;;;4450089;32;20642;-50
2022/03/21 00:48:30;;;;;;;29.57;16.03;;;;;;;;;;4449564;32;20297;-51
2022/03/21 00:50:56;;;;;;;25.37;13.17;;;;;;;;;;4449568;32;20231;-50
2022/03/21 00:53:22;;;;;;;26.90;14.07;;;;;;;;;;4449676;32;20304;-51
2022/03/21 00:55:49;;;;;;;31.17;13.13;;;;;;;;;;4449638;32;20326;-52
2022/03/21 00:58:15;;;;;;;34.17;13.50;;;;;;;;;;4451152;32;20229;-51
2022/03/21 01:00:42;;;;;;;22.43;12.53;;;;;;;;;;4449453;32;20251;-52
2022/03/21 01:03:08;;;;;;;26.60;14.03;;;;;;;;;;4449426;32;20336;-52
2022/03/21 01:05:34;;;;;;;20.50;11.57;;;;;;;;;;4455545;32;20305;-53
2022/03/21 01:08:02;;;;;;;24.00;12.40;;;;;;;;;;4464864;32;20216;-51
2022/03/21 01:10:28;;;;;;;25.27;12.77;;;;;;;;;;4464599;32;20204;-52
2022/03/21 01:12:54;;;;;;;15.70;9.77;;;;;;;;;;4464934;32;20224;-53
2022/03/21 01:15:21;;;;;;;20.73;10.50;;;;;;;;;;4464702;32;20286;-52
2022/03/21 01:17:48;;;;;;;21.07;10.73;;;;;;;;;;4464810;32;20254;-50
2022/03/21 01:20:16;;;;;;;21.90;10.80;;;;;;;;;;4464687;32;20275;-51
2022/03/21 01:22:42;;;;;;;20.60;11.43;;;;;;;;;;4464582;32;20560;-51
2022/03/21 01:25:08;;;;;;;31.93;15.23;;;;;;;;;;4464905;32;20271;-52
2022/03/21 01:27:34;;;;;;;25.37;13.10;;;;;;;;;;4460732;32;20274;-51
2022/03/21 01:30:02;;;;;;;22.73;12.37;;;;;;;;;;4449320;32;20271;-51
2022/03/21 01:32:27;;;;;;;23.17;12.07;;;;;;;;;;4449165;32;20240;-52
2022/03/21 01:34:53;;;;;;;30.67;12.93;;;;;;;;;;4448925;32;20332;-51
2022/03/21 01:37:18;;;;;;;22.23;12.43;;;;;;;;;;4449212;32;20228;-51
2022/03/21 01:39:44;;;;;;;14.83;10.63;;;;;;;;;;4449021;32;20271;-51
2022/03/21 01:42:09;;;;;;;17.97;11.63;;;;;;;;;;4449375;32;20271;-52
2022/03/21 01:44:34;;;;;;;16.77;10.87;;;;;;;;;;4449320;32;20299;-51
2022/03/21 01:47:01;;;;;;;20.40;11.30;;;;;;;;;;4449135;32;20253;-51
2022/03/21 01:49:27;;;;;;;28.83;12.33;;;;;;;;;;4449322;32;20308;-52
2022/03/21 01:51:53;;;;;;;20.43;12.43;;;;;;;;;;4448886;32;20225;-52
2022/03/21 01:57:04;;;;;;;34.00;17.30;;;;;;;;;;4464946;32;20357;-50
2022/03/21 01:59:31;;;;;;;29.97;14.50;;;;;;;;;;4453151;32;20623;-52
2022/03/21 02:01:56;;;;;;;23.07;12.07;;;;;;;;;;4448763;32;20205;-52
2022/03/21 02:04:22;;;;;;;23.00;11.70;;;;;;;;;;4450496;32;20748;-52
2022/03/21 02:06:47;;;;;;;23.77;12.60;;;;;;;;;;4449192;32;20230;-50
2022/03/21 02:09:13;;;;;;;26.53;13.97;;;;;;;;;;4448924;32;20288;-52
2022/03/21 02:11:39;;;;;;;23.57;11.80;;;;;;;;;;4448744;32;20216;-52
2022/03/21 02:14:07;;;;;;;15.53;10.27;;;;;;;;;;4448746;32;20278;-52
2022/03/21 02:16:35;;;;;;;19.83;10.40;;;;;;;;;;4448610;32;20350;-51
2022/03/21 02:19:08;;;;;;;24.30;11.70;;;;;;;;;;4448643;32;20220;-51
2022/03/21 02:21:42;;;;;;;21.17;11.60;;;;;;;;;;4448279;32;20593;-51
2022/03/21 02:24:14;;;;;;;23.07;10.60;;;;;;;;;;4447741;32;20264;-51
2022/03/21 02:26:40;;;;;;;19.27;9.97;;;;;;;;;;4448937;32;20275;-51
2022/03/21 02:29:07;;;;;;;24.33;11.20;;;;;;;;;;4448512;32;20680;-51
2022/03/21 02:31:33;;;;;;;16.90;10.73;;;;;;;;;;4448133;32;20212;-51
2022/03/21 02:33:59;;;;;;;22.40;11.93;;;;;;;;;;4448853;32;20671;-52
2022/03/21 02:36:26;;;;;;;21.03;11.53;;;;;;;;;;4448397;32;20553;-51
2022/03/21 02:38:53;;;;;;;28.50;13.23;;;;;;;;;;4448218;32;20336;-50
2022/03/21 02:41:18;;;;;;;19.43;11.43;;;;;;;;;;4448618;32;20227;-51
2022/03/21 02:43:54;;;;;;;26.87;12.47;;;;;;;;;;4448571;32;20212;-50
2022/03/21 02:46:20;;;;;;;22.90;12.63;;;;;;;;;;4447047;32;20232;-51
2022/03/21 02:48:47;;;;;;;31.43;14.70;;;;;;;;;;4448325;32;20587;-52
2022/03/21 02:51:14;;;;;;;22.67;14.47;;;;;;;;;;4455876;32;20334;-50
2022/03/21 02:53:40;;;;;;;30.17;14.23;;;;;;;;;;4463761;32;20279;-50
2022/03/21 02:56:06;;;;;;;28.73;13.70;;;;;;;;;;4463563;32;20216;-51
2022/03/21 02:58:32;;;;;;;24.93;14.43;;;;;;;;;;4458623;32;20754;-50
2022/03/21 03:01:33;;;;;;;24.80;13.67;;;;;;;;;;4448349;32;20667;-51
2022/03/21 03:03:59;;;;;;;26.70;13.27;;;;;;;;;;4446619;32;20235;-51
2022/03/21 03:06:25;;;;;;;32.10;17.20;;;;;;;;;;4449846;32;20212;-51
2022/03/21 03:08:50;;;;;;;35.90;15.43;;;;;;;;;;4448204;32;20243;-52
2022/03/21 03:11:16;;;;;;;27.37;15.43;;;;;;;;;;4447704;32;20200;-52
2022/03/21 03:13:41;;;;;;;27.03;13.60;;;;;;;;;;4448092;32;20220;-51
2022/03/21 03:16:07;;;;;;;22.23;12.47;;;;;;;;;;4448000;32;20267;-51
2022/03/21 03:18:32;;;;;;;25.03;11.50;;;;;;;;;;4448128;32;20333;-51
2022/03/21 03:20:58;;;;;;;22.53;11.83;;;;;;;;;;4447348;32;20289;-51
2022/03/21 03:23:26;;;;;;;21.87;12.57;;;;;;;;;;4448586;32;20250;-51
2022/03/21 03:26:03;;;;;;;20.73;12.53;;;;;;;;;;4463536;32;20420;-52
2022/03/21 03:28:29;;;;;;;25.87;12.10;;;;;;;;;;4463429;32;20244;-50
2022/03/21 03:30:55;;;;;;;26.27;14.13;;;;;;;;;;4463286;32;20255;-51
2022/03/21 03:33:22;;;;;;;25.23;15.20;;;;;;;;;;4463694;32;20274;-51
2022/03/21 03:35:47;;;;;;;29.37;13.40;;;;;;;;;;4466291;32;20260;-51
2022/03/21 03:38:14;;;;;;;25.57;14.63;;;;;;;;;;4466150;32;20220;-51
2022/03/21 03:40:40;;;;;;;49.77;17.13;;;;;;;;;;4466330;32;20201;-51
2022/03/21 03:43:06;;;;;;;24.83;14.00;;;;;;;;;;4465907;32;20242;-52
2022/03/21 03:45:31;;;;;;;31.07;13.90;;;;;;;;;;4465396;32;20279;-53
2022/03/21 03:47:57;;;;;;;24.33;13.67;;;;;;;;;;4454456;32;20232;-50
2022/03/21 03:50:22;;;;;;;25.27;15.27;;;;;;;;;;4450595;32;20299;-52
2022/03/21 03:52:48;;;;;;;28.83;13.90;;;;;;;;;;4450188;32;20212;-51
2022/03/21 03:55:14;;;;;;;25.93;12.67;;;;;;;;;;4450546;32;20672;-52
2022/03/21 03:57:40;;;;;;;27.00;14.60;;;;;;;;;;4450301;32;20228;-52
2022/03/21 04:00:07;;;;;;;26.30;13.03;;;;;;;;;;4455097;32;20284;-51
2022/03/21 04:03:44;;;;;;;21.03;12.10;;;;;;;;;;4450139;32;20251;-51
2022/03/21 04:05:19;;;;;;;22.03;11.83;;;;;;;;;;4454649;32;20216;-51
2022/03/21 04:07:44;;;;;;;16.87;11.20;;;;;;;;;;4465815;32;20589;-50
2022/03/21 04:10:10;;;;;;;25.90;12.83;;;;;;;;;;4466017;32;20728;-51
2022/03/21 04:12:35;;;;;;;26.23;14.33;;;;;;;;;;4465418;32;20235;-51
2022/03/21 04:15:01;;;;;;;23.83;13.47;;;;;;;;;;4465942;32;20338;-51
2022/03/21 04:17:27;;;;;;;32.93;16.27;;;;;;;;;;4454292;32;20213;-52
2022/03/21 04:19:52;;;;;;;45.70;21.43;;;;;;;;;;4450082;32;20497;-50
2022/03/21 04:22:18;;;;;;;29.60;14.03;;;;;;;;;;4450272;32;20244;-51
2022/03/21 04:24:43;;;;;;;25.50;12.60;;;;;;;;;;4459177;32;20327;-52
2022/03/21 04:27:08;;;;;;;16.67;11.30;;;;;;;;;;4465556;32;20548;-51
2022/03/21 04:29:34;;;;;;;21.73;12.87;;;;;;;;;;4465342;32;20317;-51
2022/03/21 04:32:01;;;;;;;19.43;10.90;;;;;;;;;;4465487;32;20227;-51
2022/03/21 04:34:26;;;;;;;24.50;13.00;;;;;;;;;;4465745;32;20556;-50
2022/03/21 04:36:52;;;;;;;26.87;14.20;;;;;;;;;;4465212;32;20279;-51
2022/03/21 04:39:17;;;;;;;30.60;15.07;;;;;;;;;;4465448;32;20298;-50
2022/03/21 04:41:43;;;;;;;27.27;15.40;;;;;;;;;;4465359;32;20243;-51
2022/03/21 04:44:08;;;;;;;25.33;13.53;;;;;;;;;;4455786;32;20700;-51
2022/03/21 04:46:34;;;;;;;35.30;17.30;;;;;;;;;;4455127;32;20326;-50
2022/03/21 04:48:59;;;;;;;40.37;19.70;;;;;;;;;;4449230;32;20244;-51
2022/03/21 04:51:25;;;;;;;33.37;18.27;;;;;;;;;;4449396;32;20253;-52
2022/03/21 04:53:50;;;;;;;35.53;19.47;;;;;;;;;;4449716;32;20369;-51
2022/03/21 04:56:16;;;;;;;36.53;18.40;;;;;;;;;;4449799;32;20786;-51
2022/03/21 04:58:42;;;;;;;36.70;19.10;;;;;;;;;;4454268;32;20366;-51
2022/03/21 05:01:07;;;;;;;35.70;19.57;;;;;;;;;;4449288;32;20306;-50
2022/03/21 05:03:33;;;;;;;40.47;18.60;;;;;;;;;;4449717;32;20240;-50
2022/03/21 05:05:58;;;;;;;22.77;14.77;;;;;;;;;;4458020;32;20736;-51
2022/03/21 05:08:24;;;;;;;27.57;15.07;;;;;;;;;;4464588;32;20490;-51
2022/03/21 05:10:50;;;;;;;36.33;16.07;;;;;;;;;;4465240;32;20635;-52
2022/03/21 05:13:15;;;;;;;23.07;14.13;;;;;;;;;;4456302;32;20220;-50
2022/03/21 05:15:41;;;;;;;25.07;14.17;;;;;;;;;;4449185;32;20325;-51
2022/03/21 05:18:06;;;;;;;24.53;14.90;;;;;;;;;;4449366;32;20563;-51
2022/03/21 05:20:32;;;;;;;39.27;19.03;;;;;;;;;;4449322;32;20649;-51
2022/03/21 05:31:11;;;;;;;23.50;13.77;;;;;;;;;;4448804;32;20222;-50
2022/03/21 05:36:30;;;;;;;22.03;12.97;;;;;;;;;;4448924;32;20277;-50
2022/03/21 05:38:57;;;;;;;25.53;15.17;;;;;;;;;;4449024;32;20212;-51
2022/03/21 05:41:22;;;;;;;43.37;22.20;;;;;;;;;;4449088;32;20231;-50
2022/03/21 05:43:49;;;;;;;121.63;56.70;;;;;;;;;;4449131;32;20368;-51
2022/03/21 05:46:15;;;;;;;175.93;72.93;;;;;;;;;;4448669;32;20399;-51
2022/03/21 05:48:59;;;;;;;150.03;67.33;;;;;;;;;;4448869;32;20535;-50
2022/03/21 05:51:34;;;;;;;140.13;67.03;;;;;;;;;;4447757;32;20492;-51
2022/03/21 05:54:02;;;;;;;541.20;265.73;;;;;;;;;;4449025;32;20288;-50
2022/03/21 05:56:29;;;;;;;416.30;204.23;;;;;;;;;;4448368;32;20265;-50
2022/03/21 05:58:56;;;;;;;97.83;52.97;;;;;;;;;;4448635;32;20250;-50
2022/03/21 06:01:23;;;;;;;73.33;38.83;;;;;;;;;;4448310;32;20227;-50
2022/03/21 06:03:53;;;;;;;61.17;31.43;;;;;;;;;;4449145;32;20307;-51
2022/03/21 06:06:20;;;;;;;59.47;30.40;;;;;;;;;;4450775;32;20243;-50
2022/03/21 06:08:46;;;;;;;52.50;29.63;;;;;;;;;;4448228;32;20295;-51
2022/03/21 06:11:12;;;;;;;54.70;26.10;;;;;;;;;;4448337;32;20274;-51
2022/03/21 06:13:40;;;;;;;57.97;27.07;;;;;;;;;;4448696;32;20228;-51
2022/03/21 06:16:06;;;;;;;89.43;40.90;;;;;;;;;;4448536;32;20208;-51
2022/03/21 06:18:33;;;;;;;188.63;75.90;;;;;;;;;;4448946;32;20493;-52
2022/03/21 06:21:00;;;;;;;68.63;33.17;;;;;;;;;;4448301;32;20342;-51
2022/03/21 06:23:27;;;;;;;42.33;24.00;;;;;;;;;;4449144;32;20259;-50
2022/03/21 06:25:58;;;;;;;32.17;16.93;;;;;;;;;;4463914;32;20294;-50
2022/03/21 06:28:25;;;;;;;21.40;12.57;;;;;;;;;;4462908;32;20250;-50
2022/03/21 06:30:51;;;;;;;22.00;10.13;;;;;;;;;;4463947;32;20204;-51
2022/03/21 06:33:18;;;;;;;19.40;11.37;;;;;;;;;;4463956;32;20234;-50
2022/03/21 06:35:44;;;;;;;24.93;10.13;;;;;;;;;;4459213;32;20212;-52
2022/03/21 06:38:10;;;;;;;14.67;9.73;;;;;;;;;;4447356;32;20247;-52
2022/03/21 06:40:37;;;;;;;15.37;9.77;;;;;;;;;;4448564;32;20207;-50
2022/03/21 06:43:02;;;;;;;18.93;10.70;;;;;;;;;;4452938;32;20280;-51
2022/03/21 06:45:28;;;;;;;22.17;11.77;;;;;;;;;;4460047;32;20234;-51
2022/03/21 06:47:53;;;;;;;21.00;10.63;;;;;;;;;;4452921;32;20373;-51
2022/03/21 06:50:19;;;;;;;27.77;12.80;;;;;;;;;;4462259;32;20691;-52
2022/03/21 06:52:44;;;;;;;20.53;9.80;;;;;;;;;;4461836;32;20236;-50
2022/03/21 06:55:10;;;;;;;19.37;11.17;;;;;;;;;;4461868;32;20290;-51
2022/03/21 06:57:36;;;;;;;20.23;10.47;;;;;;;;;;4453337;32;20241;-51
2022/03/21 07:00:03;;;;;;;14.93;9.27;;;;;;;;;;4460294;32;20362;-52
2022/03/21 07:02:29;;;;;;;34.23;11.73;;;;;;;;;;4461743;32;20689;-51
2022/03/21 07:04:55;;;;;;;16.03;10.00;;;;;;;;;;4456821;32;20334;-51
2022/03/21 07:07:21;;;;;;;44.53;19.03;;;;;;;;;;4447663;32;20225;-52
2022/03/21 07:09:46;;;;;;;51.50;21.73;;;;;;;;;;4450146;32;20298;-52
2022/03/21 07:12:12;;;;;;;30.30;16.50;;;;;;;;;;4450915;32;20581;-52
2022/03/21 07:14:37;;;;;;;37.13;16.90;;;;;;;;;;4458733;32;20273;-52
2022/03/21 07:17:03;;;;;;;40.97;22.63;;;;;;;;;;4466455;32;20272;-52
2022/03/21 07:19:28;;;;;;;26.33;17.60;;;;;;;;;;4465394;32;20307;-51
2022/03/21 07:21:54;;;;;;;22.00;13.63;;;;;;;;;;4463066;32;20258;-50
2022/03/21 07:24:20;;;;;;;27.27;13.83;;;;;;;;;;4457601;32;20674;-51
2022/03/21 07:26:45;;;;;;;57.70;26.40;;;;;;;;;;4448738;32;20208;-51
2022/03/21 07:29:12;;;;;;;37.03;16.27;;;;;;;;;;4449057;32;20236;-51
2022/03/21 07:31:38;;;;;;;36.03;17.30;;;;;;;;;;4451426;32;20228;-52
2022/03/21 07:34:04;;;;;;;24.87;13.70;;;;;;;;;;4465099;32;20627;-50
2022/03/21 07:36:30;;;;;;;32.70;16.57;;;;;;;;;;4464298;32;20216;-51
2022/03/21 07:38:57;;;;;;;66.23;30.60;;;;;;;;;;4461967;32;20311;-51
2022/03/21 07:41:26;;;;;;;52.50;23.03;;;;;;;;;;4455601;32;20247;-50
2022/03/21 07:43:52;;;;;;;21.50;13.17;;;;;;;;;;4455431;32;20244;-51
2022/03/21 07:49:02;;;;;;;22.53;11.40;;;;;;;;;;4451363;32;20445;-50
2022/03/21 07:51:28;;;;;;;41.87;19.00;;;;;;;;;;4450472;32;20228;-51
2022/03/21 07:53:53;;;;;;;37.47;18.60;;;;;;;;;;4450728;32;20240;-52
2022/03/21 07:56:19;;;;;;;76.90;30.97;;;;;;;;;;4448933;32;20271;-51
2022/03/21 07:58:45;;;;;;;26.83;15.07;;;;;;;;;;4450849;32;20224;-51
2022/03/21 08:01:10;;;;;;;19.77;11.67;;;;;;;;;;4452736;32;20271;-50
2022/03/21 08:03:36;;;;;;;22.77;12.03;;;;;;;;;;4462323;32;20270;-51
2022/03/21 08:06:02;;;;;;;17.10;10.03;;;;;;;;;;4459875;32;20644;-51
2022/03/21 08:08:28;;;;;;;21.43;10.10;;;;;;;;;;4466214;32;20223;-51
2022/03/21 08:10:54;;;;;;;19.87;10.90;;;;;;;;;;4465971;32;20285;-53
2022/03/21 08:13:19;;;;;;;40.03;14.73;;;;;;;;;;4465827;32;20572;-51
2022/03/21 08:15:46;;;;;;;27.47;14.80;;;;;;;;;;4465823;32;20309;-52
2022/03/21 08:18:12;;;;;;;28.97;16.93;;;;;;;;;;4465717;32;20220;-50
2022/03/21 08:20:39;;;;;;;27.73;15.67;;;;;;;;;;4465669;32;20234;-53
2022/03/21 08:23:12;;;;;;;35.00;16.30;;;;;;;;;;4465531;32;20650;-51
2022/03/21 08:25:46;;;;;;;47.40;23.57;;;;;;;;;;4450260;32;20204;-51
2022/03/21 08:28:14;;;;;;;26.20;14.40;;;;;;;;;;4449785;32;20317;-52
2022/03/21 08:30:40;;;;;;;27.33;12.30;;;;;;;;;;4450149;32;20197;-52
2022/03/21 08:33:11;;;;;;;19.43;11.33;;;;;;;;;;4450041;32;20331;-52
2022/03/21 08:35:38;;;;;;;13.03;9.07;;;;;;;;;;4449991;32;20231;-52
2022/03/21 08:38:05;;;;;;;13.13;9.03;;;;;;;;;;4449946;32;20212;-52
2022/03/21 08:40:31;;;;;;;23.90;14.13;;;;;;;;;;4449173;32;20657;-52
2022/03/21 08:42:57;;;;;;;23.73;11.00;;;;;;;;;;4452146;32;20231;-53
2022/03/21 08:45:23;;;;;;;23.03;13.40;;;;;;;;;;4453907;32;20757;-51
2022/03/21 08:47:50;;;;;;;21.30;11.57;;;;;;;;;;4450792;32;20733;-52
2022/03/21 08:50:16;;;;;;;36.13;18.17;;;;;;;;;;4446226;32;20581;-51
2022/03/21 08:52:41;;;;;;;19.80;10.97;;;;;;;;;;4458242;32;20296;-52
2022/03/21 08:55:07;;;;;;;26.27;14.23;;;;;;;;;;4456730;32;20287;-50
2022/03/21 08:57:33;;;;;;;19.30;11.63;;;;;;;;;;4451791;32;20655;-52
2022/03/21 08:59:59;;;;;;;26.43;12.77;;;;;;;;;;4462628;32;20279;-52
2022/03/21 09:02:24;;;;;;;21.67;12.63;;;;;;;;;;4452682;32;20314;-51
2022/03/21 09:04:50;;;;;;;18.60;10.77;;;;;;;;;;4455700;32;20804;-51
2022/03/21 09:07:16;;;;;;;19.50;12.10;;;;;;;;;;4446864;32;20336;-51
2022/03/21 09:09:42;;;;;;;18.30;10.67;;;;;;;;;;4455077;32;20283;-53
2022/03/21 09:12:09;;;;;;;16.93;10.93;;;;;;;;;;4448019;32;20331;-52
2022/03/21 09:14:35;;;;;;;19.03;11.27;;;;;;;;;;4449259;32;20311;-52
2022/03/21 09:17:02;;;;;;;19.73;10.40;;;;;;;;;;4451681;32;20676;-51
2022/03/21 09:19:29;;;;;;;27.43;10.80;;;;;;;;;;4446973;32;20327;-51
2022/03/21 09:21:58;;;;;;;13.07;9.93;;;;;;;;;;4453226;32;20235;-51
2022/03/21 09:24:24;;;;;;;26.80;12.53;;;;;;;;;;4452465;32;20300;-51
2022/03/21 09:26:50;;;;;;;17.13;11.00;;;;;;;;;;4454156;32;20294;-50
2022/03/21 09:29:15;;;;;;;16.03;10.07;;;;;;;;;;4462994;32;20631;-52
2022/03/21 09:31:41;;;;;;;15.73;9.87;;;;;;;;;;4461001;32;20264;-51
2022/03/21 09:34:11;;;;;;;16.93;9.73;;;;;;;;;;4452186;32;20263;-51
2022/03/21 09:36:38;;;;;;;24.07;12.33;;;;;;;;;;4460355;32;20276;-51
2022/03/21 09:39:05;;;;;;;18.43;10.50;;;;;;;;;;4455520;32;20390;-52
2022/03/21 09:41:32;;;;;;;27.37;14.83;;;;;;;;;;4450558;32;20242;-51
2022/03/21 09:44:01;;;;;;;31.97;17.70;;;;;;;;;;4447059;32;20300;-51
2022/03/21 09:46:27;;;;;;;26.43;14.53;;;;;;;;;;4458849;32;20200;-51
2022/03/21 09:48:54;;;;;;;25.03;10.50;;;;;;;;;;4448979;32;20394;-51
2022/03/21 09:51:25;;;;;;;21.83;12.77;;;;;;;;;;4447034;32;20319;-51
2022/03/21 09:53:52;;;;;;;17.43;10.77;;;;;;;;;;4457647;32;20285;-51
2022/03/21 09:56:18;;;;;;;18.73;11.40;;;;;;;;;;4447061;32;20266;-52
2022/03/21 09:58:44;;;;;;;17.30;10.57;;;;;;;;;;4446990;32;20243;-51
2022/03/21 10:01:12;;;;;;;18.90;11.90;;;;;;;;;;4454378;32;20447;-51
2022/03/21 10:03:42;;;;;;;19.80;12.83;;;;;;;;;;4448220;32;20221;-51
2022/03/21 10:06:34;;;;;;;16.37;8.60;;;;;;;;;;4451086;32;20264;-51
2022/03/21 10:09:06;;;;;;;30.20;13.87;;;;;;;;;;4444439;32;20270;-52
2022/03/21 10:11:33;;;;;;;25.53;14.27;;;;;;;;;;4454950;32;20620;-51
2022/03/21 10:14:18;;;;;;;22.97;13.10;;;;;;;;;;4456107;32;20240;-51
2022/03/21 10:17:20;;;;;;;29.23;13.47;;;;;;;;;;4447766;32;20228;-51
2022/03/21 10:19:48;;;;;;;19.37;10.43;;;;;;;;;;4445160;32;20216;-52
2022/03/21 10:22:21;;;;;;;19.43;9.20;;;;;;;;;;4453748;32;20221;-51
2022/03/21 10:24:49;;;;;;;22.67;12.07;;;;;;;;;;4450597;32;20621;-52
2022/03/21 10:27:36;;;;;;;19.40;11.40;;;;;;;;;;4460436;32;20272;-51
2022/03/21 10:30:08;;;;;;;20.13;11.10;;;;;;;;;;4448662;32;20220;-51
2022/03/21 10:32:50;;;;;;;17.87;9.20;;;;;;;;;;4456038;32;20224;-52
2022/03/21 10:35:23;;;;;;;20.07;11.07;;;;;;;;;;4456080;32;20218;-52
2022/03/21 10:37:51;;;;;;;24.77;12.33;;;;;;;;;;4454514;32;20425;-52
2022/03/21 10:40:37;;;;;;;19.93;11.10;;;;;;;;;;4461742;32;20643;-52
2022/03/21 10:43:11;;;;;;;21.80;10.97;;;;;;;;;;4453847;32;20306;-52
2022/03/21 10:45:43;;;;;;;18.97;11.37;;;;;;;;;;4464038;32;20212;-52
2022/03/21 10:48:11;;;;;;;19.93;12.90;;;;;;;;;;4454033;32;20626;-52
2022/03/21 10:50:42;;;;;;;24.00;10.50;;;;;;;;;;4455679;32;20231;-51
2022/03/21 10:53:13;;;;;;;19.07;10.87;;;;;;;;;;4459901;32;20254;-51
2022/03/21 10:55:41;;;;;;;21.83;12.37;;;;;;;;;;4460665;32;20640;-52
2022/03/21 10:58:07;;;;;;;14.80;9.73;;;;;;;;;;4454152;32;20294;-53
2022/03/21 11:00:33;;;;;;;22.13;11.90;;;;;;;;;;4456144;32;20749;-54
2022/03/21 11:03:09;;;;;;;21.87;10.97;;;;;;;;;;4450952;32;20563;-51
2022/03/21 11:05:39;;;;;;;23.90;9.83;;;;;;;;;;4451451;32;20439;-52
2022/03/21 11:08:06;;;;;;;28.30;12.90;;;;;;;;;;4455450;32;20352;-53
2022/03/21 11:10:32;;;;;;;37.63;18.03;;;;;;;;;;4450633;32;20279;-52
2022/03/21 11:13:01;;;;;;;23.30;11.67;;;;;;;;;;4456195;32;20228;-52
2022/03/21 11:15:27;;;;;;;22.23;11.63;;;;;;;;;;4453925;32;20200;-52
2022/03/21 11:17:53;;;;;;;16.77;9.17;;;;;;;;;;4456012;32;20283;-51
2022/03/21 11:20:18;;;;;;;11.43;7.53;;;;;;;;;;4452084;32;20314;-54
2022/03/21 11:22:44;;;;;;;16.57;9.00;;;;;;;;;;4450218;32;20239;-52
2022/03/21 11:25:12;;;;;;;14.53;7.60;;;;;;;;;;4458176;32;20383;-52
2022/03/21 11:28:02;;;;;;;17.73;8.70;;;;;;;;;;4455648;32;20700;-52
2022/03/21 11:30:49;;;;;;;21.40;11.37;;;;;;;;;;4454805;32;20212;-54
2022/03/21 11:33:41;;;;;;;21.77;11.23;;;;;;;;;;4450238;32;20777;-52
2022/03/21 11:36:09;;;;;;;19.60;12.20;;;;;;;;;;4417866;32;20276;-52
2022/03/21 11:38:41;;;;;;;23.77;12.00;;;;;;;;;;4452628;32;20236;-52
2022/03/21 11:41:25;;;;;;;27.47;11.60;;;;;;;;;;4460021;32;20259;-52
2022/03/21 11:44:06;;;;;;;15.80;10.87;;;;;;;;;;4464531;32;20334;-54
2022/03/21 11:46:36;;;;;;;18.27;9.30;;;;;;;;;;4457768;32;20556;-52
2022/03/21 11:49:03;;;;;;;12.93;7.97;;;;;;;;;;4461310;32;20239;-52
2022/03/21 11:51:57;;;;;;;20.90;10.03;;;;;;;;;;4451576;32;20282;-52
2022/03/21 11:54:36;;;;;;;19.37;10.20;;;;;;;;;;4458955;32;20287;-52
2022/03/21 11:57:06;;;;;;;22.43;10.70;;;;;;;;;;4464292;32;20483;-52
2022/03/21 11:59:34;;;;;;;16.67;9.43;;;;;;;;;;4454193;32;20291;-52
2022/03/21 12:02:01;;;;;;;47.97;21.83;;;;;;;;;;4463646;32;20307;-54
2022/03/21 12:04:30;;;;;;;35.43;11.70;;;;;;;;;;4452820;32;20258;-53
2022/03/21 12:07:11;;;;;;;15.83;9.77;;;;;;;;;;4452287;32;20267;-52
2022/03/21 12:09:47;;;;;;;16.60;8.73;;;;;;;;;;4452300;32;20357;-52
2022/03/21 12:12:16;;;;;;;23.37;9.93;;;;;;;;;;4449824;32;20306;-52
2022/03/21 12:14:56;;;;;;;23.60;12.87;;;;;;;;;;4454093;32;20343;-52
2022/03/21 12:17:21;;;;;;;25.10;14.57;;;;;;;;;;4458021;32;20614;-52
2022/03/21 12:19:55;;;;;;;17.13;10.43;;;;;;;;;;4458412;32;20281;-52
2022/03/21 12:22:33;;;;;;;25.70;12.30;;;;;;;;;;4458190;32;20750;-52
2022/03/21 12:25:07;;;;;;;21.33;11.90;;;;;;;;;;4447919;32;20288;-52
2022/03/21 12:27:48;;;;;;;24.27;12.40;;;;;;;;;;4454051;32;20224;-52
2022/03/21 12:30:41;;;;;;;13.53;9.13;;;;;;;;;;4454475;32;20216;-53
2022/03/21 12:33:14;;;;;;;15.03;9.27;;;;;;;;;;4459831;32;20303;-52
2022/03/21 12:35:42;;;;;;;37.13;14.63;;;;;;;;;;4457085;32;20867;-53
2022/03/21 12:38:11;;;;;;;21.87;11.30;;;;;;;;;;4453513;32;20275;-53
2022/03/21 12:40:40;;;;;;;16.17;10.13;;;;;;;;;;4459327;32;20212;-52
2022/03/21 12:43:06;;;;;;;15.60;10.20;;;;;;;;;;4453050;32;20361;-52
2022/03/21 12:45:32;;;;;;;13.90;8.53;;;;;;;;;;4456954;32;20299;-53
2022/03/21 12:48:04;;;;;;;22.67;10.97;;;;;;;;;;4453697;32;20236;-52
2022/03/21 12:50:30;;;;;;;15.07;9.50;;;;;;;;;;4461178;32;20252;-52
2022/03/21 12:53:02;;;;;;;20.73;10.87;;;;;;;;;;4462268;32;20310;-52
2022/03/21 12:55:28;;;;;;;18.00;9.43;;;;;;;;;;4449021;32;20212;-52
2022/03/21 12:57:55;;;;;;;15.87;9.70;;;;;;;;;;4458630;32;20312;-52
2022/03/21 13:00:21;;;;;;;18.87;10.30;;;;;;;;;;4452356;32;20754;-53
2022/03/21 13:02:47;;;;;;;21.57;9.73;;;;;;;;;;4457737;32;20557;-53
2022/03/21 13:10:50;;;;;;;30.50;14.23;;;;;;;;;;4452361;32;20385;-53
2022/03/21 13:13:15;;;;;;;10.23;7.07;;;;;;;;;;4460102;32;20307;-53
2022/03/21 13:15:41;;;;;;;30.63;10.27;;;;;;;;;;4456026;32;20339;-54
2022/03/21 13:18:06;;;;;;;13.83;8.43;;;;;;;;;;4448870;32;20220;-52
2022/03/21 13:20:35;;;;;;;19.03;9.13;;;;;;;;;;4447841;32;20695;-53
2022/03/21 13:23:03;;;;;;;15.63;9.87;;;;;;;;;;4458251;32;20803;-52
2022/03/21 13:25:37;;;;;;;31.97;17.70;;;;;;;;;;4461286;32;20613;-52
2022/03/21 13:28:15;;;;;;;19.73;11.37;;;;;;;;;;4456307;32;20732;-51
2022/03/21 13:31:01;;;;;;;22.07;11.57;;;;;;;;;;4455339;32;20298;-51
2022/03/21 13:33:31;;;;;;;26.00;14.10;;;;;;;;;;4454369;32;20621;-52
2022/03/21 13:35:59;;;;;;;12.87;9.57;;;;;;;;;;4455305;32;20226;-52
2022/03/21 13:38:26;;;;;;;29.67;12.10;;;;;;;;;;4458161;32;20346;-52
2022/03/21 13:40:52;;;;;;;21.17;10.97;;;;;;;;;;4449196;32;20290;-52
2022/03/21 13:43:22;;;;;;;18.37;9.97;;;;;;;;;;4457697;32;20228;-52
2022/03/21 13:45:48;;;;;;;23.27;11.23;;;;;;;;;;4450812;32;20265;-52
2022/03/21 13:48:35;;;;;;;22.67;12.73;;;;;;;;;;4456250;32;20331;-53
2022/03/21 13:51:22;;;;;;;20.97;12.67;;;;;;;;;;4454098;32;20935;-52
2022/03/21 13:53:49;;;;;;;36.60;17.20;;;;;;;;;;4446904;32;20603;-52
2022/03/21 13:56:16;;;;;;;28.43;14.97;;;;;;;;;;4456771;32;20278;-53
2022/03/21 13:58:41;;;;;;;22.73;12.53;;;;;;;;;;4452121;32;20238;-53
2022/03/21 14:01:45;;;;;;;23.50;13.13;;;;;;;;;;4455546;32;20365;-52
2022/03/21 14:04:20;;;;;;;28.13;10.90;;;;;;;;;;4439796;32;20303;-53
2022/03/21 14:06:59;;;;;;;25.43;12.47;;;;;;;;;;4448417;32;20303;-53
2022/03/21 14:09:25;;;;;;;17.67;10.13;;;;;;;;;;4451039;32;20306;-53
2022/03/21 14:12:00;;;;;;;15.43;10.63;;;;;;;;;;4453256;32;20781;-54
2022/03/21 14:14:26;;;;;;;18.33;9.87;;;;;;;;;;4454391;32;20341;-52
2022/03/21 14:16:51;;;;;;;20.73;9.47;;;;;;;;;;4459789;32;20204;-52
2022/03/21 14:19:17;;;;;;;19.57;10.27;;;;;;;;;;4455058;32;20296;-53
2022/03/21 14:21:43;;;;;;;31.03;11.40;;;;;;;;;;4452864;32;20715;-52
2022/03/21 14:24:09;;;;;;;26.53;13.30;;;;;;;;;;4447083;32;20436;-53
2022/03/21 14:26:37;;;;;;;16.03;10.37;;;;;;;;;;4454223;32;20246;-54
2022/03/21 14:29:06;;;;;;;22.73;11.77;;;;;;;;;;4460100;32;20292;-52
2022/03/21 14:31:31;;;;;;;22.33;11.37;;;;;;;;;;4453462;32;20204;-52
2022/03/21 14:33:57;;;;;;;17.20;10.53;;;;;;;;;;4457298;32;20249;-52
2022/03/21 14:36:22;;;;;;;16.73;9.87;;;;;;;;;;4451233;32;20612;-53
2022/03/21 14:38:48;;;;;;;19.83;11.83;;;;;;;;;;4457178;32;20307;-53
2022/03/21 14:41:14;;;;;;;26.67;14.83;;;;;;;;;;4449837;32;20301;-53
2022/03/21 14:43:40;;;;;;;15.13;10.63;;;;;;;;;;4452915;32;20320;-53
2022/03/21 14:46:06;;;;;;;16.73;10.27;;;;;;;;;;4449888;32;20667;-52
2022/03/21 14:48:32;;;;;;;15.30;6.63;;;;;;;;;;4457576;32;20232;-53